sensor_id;sensor_type;location;lat;lon;timestamp;temperature;humidity
31819;DHT22;18384;48.860;9.188;2024-03-23T00:55:04;11.90;93.70
31819;DHT22;18384;48.860;9.188;2024-03-23T00:57:30;11.90;93.90
31819;DHT22;18384;48.860;9.188;2024-03-23T00:59:56;11.80;93.80
31819;DHT22;18384;48.860;9.188;2024-03-23T01:02:22;11.80;93.50
31819;DHT22;18384;48.860;9.188;2024-03-23T01:04:48;11.80;93.70
31819;DHT22;18384;48.860;9.188;2024-03-23T01:07:15;11.80;93.80
31819;DHT22;18384;48.860;9.188;2024-03-23T01:09:41;11.80;93.80
31819;DHT22;18384;48.860;9.188;2024-03-23T01:12:07;11.90;94.00
31819;DHT22;18384;48.860;9.188;2024-03-23T01:14:33;11.90;94.10
31819;DHT22;18384;48.860;9.188;2024-03-23T01:16:59;11.90;94.30
31819;DHT22;18384;48.860;9.188;2024-03-23T01:19:25;12.00;94.10
31819;DHT22;18384;48.860;9.188;2024-03-23T01:21:51;12.00;93.80
31819;DHT22;18384;48.860;9.188;2024-03-23T01:24:17;12.00;93.80
31819;DHT22;18384;48.860;9.188;2024-03-23T01:26:43;12.00;93.60
31819;DHT22;18384;48.860;9.188;2024-03-23T01:29:09;12.00;93.60
31819;DHT22;18384;48.860;9.188;2024-03-23T01:31:37;12.00;93.50
31819;DHT22;18384;48.860;9.188;2024-03-23T01:34:03;12.00;93.80
31819;DHT22;18384;48.860;9.188;2024-03-23T01:36:29;12.00;93.80
31819;DHT22;18384;48.860;9.188;2024-03-23T01:38:55;12.00;93.90
31819;DHT22;18384;48.860;9.188;2024-03-23T01:41:21;12.00;94.00
31819;DHT22;18384;48.860;9.188;2024-03-23T01:43:49;11.90;93.90
31819;DHT22;18384;48.860;9.188;2024-03-23T01:46:16;11.90;93.90
31819;DHT22;18384;48.860;9.188;2024-03-23T01:48:43;12.00;94.00
31819;DHT22;18384;48.860;9.188;2024-03-23T01:51:09;12.00;94.00
31819;DHT22;18384;48.860;9.188;2024-03-23T01:53:36;12.00;93.90
31819;DHT22;18384;48.860;9.188;2024-03-23T01:56:03;12.00;93.90
31819;DHT22;18384;48.860;9.188;2024-03-23T01:58:29;12.00;94.00
31819;DHT22;18384;48.860;9.188;2024-03-23T02:00:57;12.00;93.80
31819;DHT22;18384;48.860;9.188;2024-03-23T02:03:27;11.90;94.00
31819;DHT22;18384;48.860;9.188;2024-03-23T02:05:54;12.00;93.90
31819;DHT22;18384;48.860;9.188;2024-03-23T02:08:23;12.10;93.90
31819;DHT22;18384;48.860;9.188;2024-03-23T02:10:50;12.00;93.90
31819;DHT22;18384;48.860;9.188;2024-03-23T02:13:17;12.00;94.00
31819;DHT22;18384;48.860;9.188;2024-03-23T02:15:44;12.00;94.00
31819;DHT22;18384;48.860;9.188;2024-03-23T02:18:10;12.00;94.10
31819;DHT22;18384;48.860;9.188;2024-03-23T02:20:37;12.00;94.00
31819;DHT22;18384;48.860;9.188;2024-03-23T02:23:04;12.00;93.80
31819;DHT22;18384;48.860;9.188;2024-03-23T02:25:32;12.10;93.80
31819;DHT22;18384;48.860;9.188;2024-03-23T02:27:59;12.20;93.80
31819;DHT22;18384;48.860;9.188;2024-03-23T02:30:26;12.20;93.80
31819;DHT22;18384;48.860;9.188;2024-03-23T02:32:52;12.20;93.70
31819;DHT22;18384;48.860;9.188;2024-03-23T02:35:18;12.20;93.80
31819;DHT22;18384;48.860;9.188;2024-03-23T02:37:46;12.30;93.70
31819;DHT22;18384;48.860;9.188;2024-03-23T02:40:14;12.30;93.90
31819;DHT22;18384;48.860;9.188;2024-03-23T02:42:41;12.20;94.00
31819;DHT22;18384;48.860;9.188;2024-03-23T02:45:07;12.40;93.70
31819;DHT22;18384;48.860;9.188;2024-03-23T02:47:33;12.40;93.50
31819;DHT22;18384;48.860;9.188;2024-03-23T02:49:59;12.40;93.50
31819;DHT22;18384;48.860;9.188;2024-03-23T02:52:25;12.30;93.60
31819;DHT22;18384;48.860;9.188;2024-03-23T02:54:51;12.30;93.60
31819;DHT22;18384;48.860;9.188;2024-03-23T02:57:17;12.10;93.70
31819;DHT22;18384;48.860;9.188;2024-03-23T02:59:44;12.20;93.80
31819;DHT22;18384;48.860;9.188;2024-03-23T03:02:11;12.20;93.70
31819;DHT22;18384;48.860;9.188;2024-03-23T03:04:37;12.20;93.70
31819;DHT22;18384;48.860;9.188;2024-03-23T03:07:03;12.10;93.80
31819;DHT22;18384;48.860;9.188;2024-03-23T03:09:30;12.10;93.90
31819;DHT22;18384;48.860;9.188;2024-03-23T03:11:56;12.10;94.00
31819;DHT22;18384;48.860;9.188;2024-03-23T03:14:22;12.10;94.10
31819;DHT22;18384;48.860;9.188;2024-03-23T03:16:48;12.10;94.20
31819;DHT22;18384;48.860;9.188;2024-03-23T03:19:14;12.10;94.20
31819;DHT22;18384;48.860;9.188;2024-03-23T03:21:42;12.00;94.30
31819;DHT22;18384;48.860;9.188;2024-03-23T03:24:08;12.00;94.20
31819;DHT22;18384;48.860;9.188;2024-03-23T03:26:34;12.00;94.20
31819;DHT22;18384;48.860;9.188;2024-03-23T03:29:00;12.00;94.20
31819;DHT22;18384;48.860;9.188;2024-03-23T03:31:26;12.00;94.10
31819;DHT22;18384;48.860;9.188;2024-03-23T03:33:52;12.10;94.10
31819;DHT22;18384;48.860;9.188;2024-03-23T03:36:18;12.10;94.20
31819;DHT22;18384;48.860;9.188;2024-03-23T03:38:45;12.10;94.30
31819;DHT22;18384;48.860;9.188;2024-03-23T03:41:11;12.10;94.30
31819;DHT22;18384;48.860;9.188;2024-03-23T03:43:37;12.10;94.20
31819;DHT22;18384;48.860;9.188;2024-03-23T03:46:03;12.10;94.30
31819;DHT22;18384;48.860;9.188;2024-03-23T03:48:30;12.20;94.30
31819;DHT22;18384;48.860;9.188;2024-03-23T03:50:56;12.20;94.20
31819;DHT22;18384;48.860;9.188;2024-03-23T03:53:22;12.10;94.30
31819;DHT22;18384;48.860;9.188;2024-03-23T03:55:48;12.10;94.20
31819;DHT22;18384;48.860;9.188;2024-03-23T03:58:14;12.10;94.20
31819;DHT22;18384;48.860;9.188;2024-03-23T04:00:41;12.10;94.20
31819;DHT22;18384;48.860;9.188;2024-03-23T04:03:07;12.10;94.10
31819;DHT22;18384;48.860;9.188;2024-03-23T04:05:33;12.10;94.00
31819;DHT22;18384;48.860;9.188;2024-03-23T04:07:59;12.10;93.90
31819;DHT22;18384;48.860;9.188;2024-03-23T04:10:25;12.20;93.90
31819;DHT22;18384;48.860;9.188;2024-03-23T04:12:52;12.20;94.00
31819;DHT22;18384;48.860;9.188;2024-03-23T04:15:19;12.20;93.90
31819;DHT22;18384;48.860;9.188;2024-03-23T04:17:45;12.20;93.90
31819;DHT22;18384;48.860;9.188;2024-03-23T04:20:12;12.30;93.80
31819;DHT22;18384;48.860;9.188;2024-03-23T04:22:45;12.30;93.70
31819;DHT22;18384;48.860;9.188;2024-03-23T04:25:12;12.30;93.60
31819;DHT22;18384;48.860;9.188;2024-03-23T04:27:39;12.30;93.60
31819;DHT22;18384;48.860;9.188;2024-03-23T04:30:06;12.30;93.80
31819;DHT22;18384;48.860;9.188;2024-03-23T04:32:37;12.10;94.80
31819;DHT22;18384;48.860;9.188;2024-03-23T04:35:03;11.90;96.30
31819;DHT22;18384;48.860;9.188;2024-03-23T04:37:38;11.80;97.50
31819;DHT22;18384;48.860;9.188;2024-03-23T04:40:07;11.80;98.50
31819;DHT22;18384;48.860;9.188;2024-03-23T04:42:33;11.70;98.60
31819;DHT22;18384;48.860;9.188;2024-03-23T04:45:00;11.70;99.20
31819;DHT22;18384;48.860;9.188;2024-03-23T04:47:26;11.70;99.60
31819;DHT22;18384;48.860;9.188;2024-03-23T04:49:52;11.80;99.80
31819;DHT22;18384;48.860;9.188;2024-03-23T04:52:19;11.80;99.90
31819;DHT22;18384;48.860;9.188;2024-03-23T04:54:45;11.80;99.90
31819;DHT22;18384;48.860;9.188;2024-03-23T04:57:11;11.90;99.90
31819;DHT22;18384;48.860;9.188;2024-03-23T04:59:37;11.90;99.90
31819;DHT22;18384;48.860;9.188;2024-03-23T05:02:03;11.90;99.90
31819;DHT22;18384;48.860;9.188;2024-03-23T05:04:29;11.90;99.90
31819;DHT22;18384;48.860;9.188;2024-03-23T05:06:57;12.30;99.90
31819;DHT22;18384;48.860;9.188;2024-03-23T05:09:23;11.90;99.90
31819;DHT22;18384;48.860;9.188;2024-03-23T05:11:50;11.90;99.90
31819;DHT22;18384;48.860;9.188;2024-03-23T05:14:16;11.90;99.90
31819;DHT22;18384;48.860;9.188;2024-03-23T05:16:42;11.90;99.90
31819;DHT22;18384;48.860;9.188;2024-03-23T05:19:08;11.90;99.90
31819;DHT22;18384;48.860;9.188;2024-03-23T05:21:34;11.80;99.70
31819;DHT22;18384;48.860;9.188;2024-03-23T05:24:00;11.90;99.90
31819;DHT22;18384;48.860;9.188;2024-03-23T05:26:26;11.90;99.70
31819;DHT22;18384;48.860;9.188;2024-03-23T05:28:53;11.90;99.80
31819;DHT22;18384;48.860;9.188;2024-03-23T05:31:26;11.90;99.50
31819;DHT22;18384;48.860;9.188;2024-03-23T05:33:53;11.80;99.90
31819;DHT22;18384;48.860;9.188;2024-03-23T05:36:20;11.80;99.70
31819;DHT22;18384;48.860;9.188;2024-03-23T05:38:46;11.80;99.20
31819;DHT22;18384;48.860;9.188;2024-03-23T05:41:12;11.70;99.50
31819;DHT22;18384;48.860;9.188;2024-03-23T05:43:38;11.60;99.20
31819;DHT22;18384;48.860;9.188;2024-03-23T05:46:05;11.60;98.80
31819;DHT22;18384;48.860;9.188;2024-03-23T05:48:32;11.50;98.40
31819;DHT22;18384;48.860;9.188;2024-03-23T05:50:58;11.40;98.00
31819;DHT22;18384;48.860;9.188;2024-03-23T05:53:24;11.30;98.00
31819;DHT22;18384;48.860;9.188;2024-03-23T05:55:51;11.20;97.90
31819;DHT22;18384;48.860;9.188;2024-03-23T05:58:26;11.20;98.50
31819;DHT22;18384;48.860;9.188;2024-03-23T06:00:59;11.20;98.30
31819;DHT22;18384;48.860;9.188;2024-03-23T06:03:28;11.20;98.50
31819;DHT22;18384;48.860;9.188;2024-03-23T06:05:55;11.20;98.50
31819;DHT22;18384;48.860;9.188;2024-03-23T06:08:22;11.20;98.60
31819;DHT22;18384;48.860;9.188;2024-03-23T06:10:50;11.20;98.50
31819;DHT22;18384;48.860;9.188;2024-03-23T06:13:16;11.20;98.20
31819;DHT22;18384;48.860;9.188;2024-03-23T06:15:42;11.10;98.60
31819;DHT22;18384;48.860;9.188;2024-03-23T06:18:08;11.10;98.60
31819;DHT22;18384;48.860;9.188;2024-03-23T06:20:34;11.10;98.40
31819;DHT22;18384;48.860;9.188;2024-03-23T06:23:01;11.10;98.30
31819;DHT22;18384;48.860;9.188;2024-03-23T06:25:29;11.10;98.50
31819;DHT22;18384;48.860;9.188;2024-03-23T06:27:56;11.10;98.80
31819;DHT22;18384;48.860;9.188;2024-03-23T06:30:24;11.10;98.20
31819;DHT22;18384;48.860;9.188;2024-03-23T06:32:52;11.20;97.90
31819;DHT22;18384;48.860;9.188;2024-03-23T06:35:18;11.10;97.50
31819;DHT22;18384;48.860;9.188;2024-03-23T06:37:44;11.10;97.40
31819;DHT22;18384;48.860;9.188;2024-03-23T06:40:11;11.00;97.30
31819;DHT22;18384;48.860;9.188;2024-03-23T06:42:37;11.00;97.70
31819;DHT22;18384;48.860;9.188;2024-03-23T06:45:03;11.00;97.90
31819;DHT22;18384;48.860;9.188;2024-03-23T06:47:30;10.90;97.70
31819;DHT22;18384;48.860;9.188;2024-03-23T06:49:56;10.90;97.70
31819;DHT22;18384;48.860;9.188;2024-03-23T06:52:22;10.90;97.40
31819;DHT22;18384;48.860;9.188;2024-03-23T06:54:49;10.80;97.50
31819;DHT22;18384;48.860;9.188;2024-03-23T06:57:15;10.90;97.60
31819;DHT22;18384;48.860;9.188;2024-03-23T06:59:41;10.90;97.50
31819;DHT22;18384;48.860;9.188;2024-03-23T07:02:07;10.90;97.30
31819;DHT22;18384;48.860;9.188;2024-03-23T07:04:36;10.80;96.80
31819;DHT22;18384;48.860;9.188;2024-03-23T07:07:02;10.80;96.90
31819;DHT22;18384;48.860;9.188;2024-03-23T07:09:29;10.80;96.80
31819;DHT22;18384;48.860;9.188;2024-03-23T07:11:58;10.80;96.60
31819;DHT22;18384;48.860;9.188;2024-03-23T07:14:24;10.90;96.80
31819;DHT22;18384;48.860;9.188;2024-03-23T07:16:51;10.90;96.60
31819;DHT22;18384;48.860;9.188;2024-03-23T07:19:17;11.00;96.00
31819;DHT22;18384;48.860;9.188;2024-03-23T07:21:44;11.00;96.30
31819;DHT22;18384;48.860;9.188;2024-03-23T07:24:11;11.20;96.30
31819;DHT22;18384;48.860;9.188;2024-03-23T07:26:37;11.30;95.70
31819;DHT22;18384;48.860;9.188;2024-03-23T07:29:06;11.30;95.30
31819;DHT22;18384;48.860;9.188;2024-03-23T07:31:33;11.30;95.40
31819;DHT22;18384;48.860;9.188;2024-03-23T07:33:59;11.40;95.40
31819;DHT22;18384;48.860;9.188;2024-03-23T07:36:25;11.30;94.90
31819;DHT22;18384;48.860;9.188;2024-03-23T07:38:51;11.30;95.10
31819;DHT22;18384;48.860;9.188;2024-03-23T07:41:21;11.20;95.30
31819;DHT22;18384;48.860;9.188;2024-03-23T07:43:47;11.20;95.00
31819;DHT22;18384;48.860;9.188;2024-03-23T07:46:15;11.20;95.10
31819;DHT22;18384;48.860;9.188;2024-03-23T07:48:42;11.20;95.60
31819;DHT22;18384;48.860;9.188;2024-03-23T07:51:09;11.20;95.40
31819;DHT22;18384;48.860;9.188;2024-03-23T07:53:36;11.20;95.70
31819;DHT22;18384;48.860;9.188;2024-03-23T07:56:07;11.20;95.40
31819;DHT22;18384;48.860;9.188;2024-03-23T07:58:34;11.10;96.00
31819;DHT22;18384;48.860;9.188;2024-03-23T08:01:08;11.10;95.90
31819;DHT22;18384;48.860;9.188;2024-03-23T08:03:39;11.00;96.60
31819;DHT22;18384;48.860;9.188;2024-03-23T08:06:16;10.90;96.40
31819;DHT22;18384;48.860;9.188;2024-03-23T08:08:46;10.80;97.20
31819;DHT22;18384;48.860;9.188;2024-03-23T08:11:13;10.60;97.20
31819;DHT22;18384;48.860;9.188;2024-03-23T08:13:41;10.60;97.00
31819;DHT22;18384;48.860;9.188;2024-03-23T08:16:08;10.50;96.60
31819;DHT22;18384;48.860;9.188;2024-03-23T08:18:37;10.60;96.70
31819;DHT22;18384;48.860;9.188;2024-03-23T08:21:05;10.70;96.40
31819;DHT22;18384;48.860;9.188;2024-03-23T08:23:34;10.60;96.10
31819;DHT22;18384;48.860;9.188;2024-03-23T08:26:07;10.60;96.30
31819;DHT22;18384;48.860;9.188;2024-03-23T08:28:35;10.30;95.20
31819;DHT22;18384;48.860;9.188;2024-03-23T08:31:05;10.10;96.00
31819;DHT22;18384;48.860;9.188;2024-03-23T08:33:32;10.10;96.10
31819;DHT22;18384;48.860;9.188;2024-03-23T08:35:59;10.00;95.40
31819;DHT22;18384;48.860;9.188;2024-03-23T08:38:27;10.00;95.70
31819;DHT22;18384;48.860;9.188;2024-03-23T08:41:01;10.10;96.20
31819;DHT22;18384;48.860;9.188;2024-03-23T08:43:29;10.50;96.70
31819;DHT22;18384;48.860;9.188;2024-03-23T08:46:15;10.70;96.00
31819;DHT22;18384;48.860;9.188;2024-03-23T08:48:46;10.70;95.30
31819;DHT22;18384;48.860;9.188;2024-03-23T08:51:15;10.80;94.60
31819;DHT22;18384;48.860;9.188;2024-03-23T08:53:42;10.80;94.20
31819;DHT22;18384;48.860;9.188;2024-03-23T08:56:09;10.80;93.80
31819;DHT22;18384;48.860;9.188;2024-03-23T08:58:36;10.70;94.30
31819;DHT22;18384;48.860;9.188;2024-03-23T09:01:11;10.70;94.50
31819;DHT22;18384;48.860;9.188;2024-03-23T09:03:41;10.80;94.20
31819;DHT22;18384;48.860;9.188;2024-03-23T09:06:08;10.70;94.60
31819;DHT22;18384;48.860;9.188;2024-03-23T09:08:36;10.70;94.60
31819;DHT22;18384;48.860;9.188;2024-03-23T09:11:06;10.70;94.40
31819;DHT22;18384;48.860;9.188;2024-03-23T09:13:34;10.70;94.90
31819;DHT22;18384;48.860;9.188;2024-03-23T09:16:01;10.80;95.10
31819;DHT22;18384;48.860;9.188;2024-03-23T09:18:27;10.80;94.00
31819;DHT22;18384;48.860;9.188;2024-03-23T09:20:56;10.90;94.90
31819;DHT22;18384;48.860;9.188;2024-03-23T09:23:22;10.90;93.40
31819;DHT22;18384;48.860;9.188;2024-03-23T09:25:48;11.00;91.80
31819;DHT22;18384;48.860;9.188;2024-03-23T09:28:14;11.00;92.40
31819;DHT22;18384;48.860;9.188;2024-03-23T09:30:41;10.90;91.30
31819;DHT22;18384;48.860;9.188;2024-03-23T09:33:11;10.80;91.60
31819;DHT22;18384;48.860;9.188;2024-03-23T09:35:43;10.80;92.50
31819;DHT22;18384;48.860;9.188;2024-03-23T09:38:12;10.90;92.00
31819;DHT22;18384;48.860;9.188;2024-03-23T09:40:42;10.80;91.60
31819;DHT22;18384;48.860;9.188;2024-03-23T09:43:09;10.70;91.70
31819;DHT22;18384;48.860;9.188;2024-03-23T09:45:43;10.60;92.20
31819;DHT22;18384;48.860;9.188;2024-03-23T09:48:10;10.60;91.90
31819;DHT22;18384;48.860;9.188;2024-03-23T09:50:41;10.60;91.50
31819;DHT22;18384;48.860;9.188;2024-03-23T09:53:12;10.60;91.80
31819;DHT22;18384;48.860;9.188;2024-03-23T09:55:40;10.70;91.50
31819;DHT22;18384;48.860;9.188;2024-03-23T09:58:07;10.70;91.40
31819;DHT22;18384;48.860;9.188;2024-03-23T10:00:35;10.70;92.00
31819;DHT22;18384;48.860;9.188;2024-03-23T10:03:01;10.80;91.60
31819;DHT22;18384;48.860;9.188;2024-03-23T10:05:30;10.80;91.10
31819;DHT22;18384;48.860;9.188;2024-03-23T10:08:02;10.90;91.00
31819;DHT22;18384;48.860;9.188;2024-03-23T10:10:44;10.90;91.10
31819;DHT22;18384;48.860;9.188;2024-03-23T10:13:14;10.90;90.90
31819;DHT22;18384;48.860;9.188;2024-03-23T10:15:58;11.00;91.20
31819;DHT22;18384;48.860;9.188;2024-03-23T10:18:25;11.00;90.40
31819;DHT22;18384;48.860;9.188;2024-03-23T10:21:10;11.10;90.20
31819;DHT22;18384;48.860;9.188;2024-03-23T10:23:40;11.00;90.20
31819;DHT22;18384;48.860;9.188;2024-03-23T10:26:21;11.00;90.20
31819;DHT22;18384;48.860;9.188;2024-03-23T10:28:56;10.90;91.00
31819;DHT22;18384;48.860;9.188;2024-03-23T10:31:26;10.90;90.60
31819;DHT22;18384;48.860;9.188;2024-03-23T10:33:58;11.00;90.50
31819;DHT22;18384;48.860;9.188;2024-03-23T10:36:26;11.10;90.20
31819;DHT22;18384;48.860;9.188;2024-03-23T10:38:53;11.10;89.90
31819;DHT22;18384;48.860;9.188;2024-03-23T10:41:20;11.20;90.20
31819;DHT22;18384;48.860;9.188;2024-03-23T10:43:48;11.10;88.90
31819;DHT22;18384;48.860;9.188;2024-03-23T10:46:15;11.00;88.80
31819;DHT22;18384;48.860;9.188;2024-03-23T10:48:42;11.00;89.00
31819;DHT22;18384;48.860;9.188;2024-03-23T10:51:10;10.90;90.50
31819;DHT22;18384;48.860;9.188;2024-03-23T10:53:36;10.60;91.00
31819;DHT22;18384;48.860;9.188;2024-03-23T10:56:04;10.00;92.30
31819;DHT22;18384;48.860;9.188;2024-03-23T10:58:36;9.60;93.60
31819;DHT22;18384;48.860;9.188;2024-03-23T11:01:06;9.30;94.10
31819;DHT22;18384;48.860;9.188;2024-03-23T11:03:37;9.00;95.50
31819;DHT22;18384;48.860;9.188;2024-03-23T11:06:07;8.90;96.30
31819;DHT22;18384;48.860;9.188;2024-03-23T11:08:40;8.80;96.50
31819;DHT22;18384;48.860;9.188;2024-03-23T11:13:58;10.00;97.10
31819;DHT22;18384;48.860;9.188;2024-03-23T11:16:26;8.90;97.00
31819;DHT22;18384;48.860;9.188;2024-03-23T11:19:34;9.00;98.10
31819;DHT22;18384;48.860;9.188;2024-03-23T11:22:04;9.30;98.00
31819;DHT22;18384;48.860;9.188;2024-03-23T11:24:33;9.40;97.50
31819;DHT22;18384;48.860;9.188;2024-03-23T11:27:02;9.60;96.60
31819;DHT22;18384;48.860;9.188;2024-03-23T11:29:41;9.90;96.60
31819;DHT22;18384;48.860;9.188;2024-03-23T11:32:10;10.00;96.50
31819;DHT22;18384;48.860;9.188;2024-03-23T11:34:39;10.20;97.60
31819;DHT22;18384;48.860;9.188;2024-03-23T11:37:05;10.30;96.10
31819;DHT22;18384;48.860;9.188;2024-03-23T11:39:31;10.40;96.20
31819;DHT22;18384;48.860;9.188;2024-03-23T11:41:58;10.40;96.40
31819;DHT22;18384;48.860;9.188;2024-03-23T11:44:27;10.50;96.60
31819;DHT22;18384;48.860;9.188;2024-03-23T11:46:53;10.60;96.50
31819;DHT22;18384;48.860;9.188;2024-03-23T11:49:29;10.70;96.60
31819;DHT22;18384;48.860;9.188;2024-03-23T11:51:56;10.80;95.40
31819;DHT22;18384;48.860;9.188;2024-03-23T11:54:24;10.90;94.20
31819;DHT22;18384;48.860;9.188;2024-03-23T11:57:09;10.90;94.90
31819;DHT22;18384;48.860;9.188;2024-03-23T11:59:37;10.80;94.30
31819;DHT22;18384;48.860;9.188;2024-03-23T12:02:10;10.90;93.40
31819;DHT22;18384;48.860;9.188;2024-03-23T12:04:37;11.00;94.60
31819;DHT22;18384;48.860;9.188;2024-03-23T12:07:19;11.00;93.10
31819;DHT22;18384;48.860;9.188;2024-03-23T12:10:03;11.10;93.00
31819;DHT22;18384;48.860;9.188;2024-03-23T12:12:29;11.10;93.10
31819;DHT22;18384;48.860;9.188;2024-03-23T12:15:07;11.10;92.20
31819;DHT22;18384;48.860;9.188;2024-03-23T12:17:34;11.00;89.70
31819;DHT22;18384;48.860;9.188;2024-03-23T12:20:01;10.90;91.00
31819;DHT22;18384;48.860;9.188;2024-03-23T12:22:28;10.80;89.90
31819;DHT22;18384;48.860;9.188;2024-03-23T12:24:55;10.70;89.50
31819;DHT22;18384;48.860;9.188;2024-03-23T12:27:22;10.70;90.60
31819;DHT22;18384;48.860;9.188;2024-03-23T12:29:48;10.80;91.40
31819;DHT22;18384;48.860;9.188;2024-03-23T12:32:15;11.00;89.60
31819;DHT22;18384;48.860;9.188;2024-03-23T12:34:41;11.10;88.50
31819;DHT22;18384;48.860;9.188;2024-03-23T12:37:08;11.20;88.30
31819;DHT22;18384;48.860;9.188;2024-03-23T12:39:38;11.40;87.10
31819;DHT22;18384;48.860;9.188;2024-03-23T12:42:04;11.50;89.30
31819;DHT22;18384;48.860;9.188;2024-03-23T12:44:30;11.60;89.20
31819;DHT22;18384;48.860;9.188;2024-03-23T12:46:57;11.60;89.50
31819;DHT22;18384;48.860;9.188;2024-03-23T12:49:23;11.60;88.60
31819;DHT22;18384;48.860;9.188;2024-03-23T12:51:55;11.60;90.40
31819;DHT22;18384;48.860;9.188;2024-03-23T12:54:22;11.40;88.60
31819;DHT22;18384;48.860;9.188;2024-03-23T12:56:49;11.40;87.20
31819;DHT22;18384;48.860;9.188;2024-03-23T12:59:16;11.30;87.10
31819;DHT22;18384;48.860;9.188;2024-03-23T13:01:44;11.20;89.40
31819;DHT22;18384;48.860;9.188;2024-03-23T13:04:10;11.20;88.50
31819;DHT22;18384;48.860;9.188;2024-03-23T13:06:36;11.30;89.20
31819;DHT22;18384;48.860;9.188;2024-03-23T13:09:03;11.40;90.20
31819;DHT22;18384;48.860;9.188;2024-03-23T13:11:32;11.40;90.10
31819;DHT22;18384;48.860;9.188;2024-03-23T13:13:58;11.40;87.40
31819;DHT22;18384;48.860;9.188;2024-03-23T13:16:24;11.30;86.50
31819;DHT22;18384;48.860;9.188;2024-03-23T13:18:50;11.30;87.90
31819;DHT22;18384;48.860;9.188;2024-03-23T13:21:17;11.30;85.60
31819;DHT22;18384;48.860;9.188;2024-03-23T13:23:46;10.30;84.60
31819;DHT22;18384;48.860;9.188;2024-03-23T13:26:13;11.40;84.70
31819;DHT22;18384;48.860;9.188;2024-03-23T13:28:39;11.40;85.30
31819;DHT22;18384;48.860;9.188;2024-03-23T13:31:06;11.30;84.30
31819;DHT22;18384;48.860;9.188;2024-03-23T13:33:32;11.20;86.80
31819;DHT22;18384;48.860;9.188;2024-03-23T13:35:58;11.20;85.30
31819;DHT22;18384;48.860;9.188;2024-03-23T13:38:24;11.30;83.40
31819;DHT22;18384;48.860;9.188;2024-03-23T13:40:55;11.40;85.00
31819;DHT22;18384;48.860;9.188;2024-03-23T13:43:22;11.50;81.70
31819;DHT22;18384;48.860;9.188;2024-03-23T13:45:59;11.50;82.20
31819;DHT22;18384;48.860;9.188;2024-03-23T13:48:27;11.60;83.30
31819;DHT22;18384;48.860;9.188;2024-03-23T13:51:04;11.70;83.40
31819;DHT22;18384;48.860;9.188;2024-03-23T13:53:31;11.70;81.60
31819;DHT22;18384;48.860;9.188;2024-03-23T13:55:58;11.70;83.40
31819;DHT22;18384;48.860;9.188;2024-03-23T13:58:24;11.10;87.90
31819;DHT22;18384;48.860;9.188;2024-03-23T14:00:53;10.50;90.20
31819;DHT22;18384;48.860;9.188;2024-03-23T14:03:22;10.00;91.80
31819;DHT22;18384;48.860;9.188;2024-03-23T14:05:48;9.50;93.00
31819;DHT22;18384;48.860;9.188;2024-03-23T14:08:15;9.20;94.00
31819;DHT22;18384;48.860;9.188;2024-03-23T14:10:41;9.00;94.50
31819;DHT22;18384;48.860;9.188;2024-03-23T14:13:08;8.90;94.80
31819;DHT22;18384;48.860;9.188;2024-03-23T14:15:34;8.70;96.10
31819;DHT22;18384;48.860;9.188;2024-03-23T14:18:02;8.60;96.20
31819;DHT22;18384;48.860;9.188;2024-03-23T14:20:29;8.40;96.00
31819;DHT22;18384;48.860;9.188;2024-03-23T14:22:55;8.40;95.80
31819;DHT22;18384;48.860;9.188;2024-03-23T14:25:21;8.40;96.10
31819;DHT22;18384;48.860;9.188;2024-03-23T14:27:52;8.40;95.60
31819;DHT22;18384;48.860;9.188;2024-03-23T14:30:18;8.30;96.10
31819;DHT22;18384;48.860;9.188;2024-03-23T14:32:45;8.20;95.90
31819;DHT22;18384;48.860;9.188;2024-03-23T14:35:11;8.30;96.60
31819;DHT22;18384;48.860;9.188;2024-03-23T14:37:37;8.40;96.50
31819;DHT22;18384;48.860;9.188;2024-03-23T14:40:04;8.60;97.20
31819;DHT22;18384;48.860;9.188;2024-03-23T14:42:30;8.80;96.70
31819;DHT22;18384;48.860;9.188;2024-03-23T14:44:58;9.00;96.60
31819;DHT22;18384;48.860;9.188;2024-03-23T14:47:24;9.10;95.90
31819;DHT22;18384;48.860;9.188;2024-03-23T14:49:50;9.10;96.30
31819;DHT22;18384;48.860;9.188;2024-03-23T14:52:17;9.10;96.00
31819;DHT22;18384;48.860;9.188;2024-03-23T14:54:44;9.20;95.30
31819;DHT22;18384;48.860;9.188;2024-03-23T14:57:10;9.20;95.50
31819;DHT22;18384;48.860;9.188;2024-03-23T14:59:37;9.10;94.80
31819;DHT22;18384;48.860;9.188;2024-03-23T15:02:04;9.10;94.70
31819;DHT22;18384;48.860;9.188;2024-03-23T15:04:30;7.70;94.90
31819;DHT22;18384;48.860;9.188;2024-03-23T15:06:56;9.30;94.50
31819;DHT22;18384;48.860;9.188;2024-03-23T15:09:23;9.40;94.60
31819;DHT22;18384;48.860;9.188;2024-03-23T15:11:49;9.40;93.10
31819;DHT22;18384;48.860;9.188;2024-03-23T15:14:15;9.50;93.10
31819;DHT22;18384;48.860;9.188;2024-03-23T15:16:41;9.60;93.00
31819;DHT22;18384;48.860;9.188;2024-03-23T15:19:10;9.70;93.80
31819;DHT22;18384;48.860;9.188;2024-03-23T15:21:36;9.70;92.50
31819;DHT22;18384;48.860;9.188;2024-03-23T15:24:02;9.70;92.40
31819;DHT22;18384;48.860;9.188;2024-03-23T15:26:28;9.70;92.60
31819;DHT22;18384;48.860;9.188;2024-03-23T15:28:54;9.60;93.10
31819;DHT22;18384;48.860;9.188;2024-03-23T15:31:42;9.50;93.70
31819;DHT22;18384;48.860;9.188;2024-03-23T15:34:08;9.50;93.10
31819;DHT22;18384;48.860;9.188;2024-03-23T15:36:37;9.40;93.40
31819;DHT22;18384;48.860;9.188;2024-03-23T15:39:06;9.40;93.20
31819;DHT22;18384;48.860;9.188;2024-03-23T15:41:32;9.30;93.60
31819;DHT22;18384;48.860;9.188;2024-03-23T15:44:01;9.20;93.70
31819;DHT22;18384;48.860;9.188;2024-03-23T15:46:27;9.20;94.00
31819;DHT22;18384;48.860;9.188;2024-03-23T15:48:53;9.30;94.00
31819;DHT22;18384;48.860;9.188;2024-03-23T15:51:20;9.30;94.10
31819;DHT22;18384;48.860;9.188;2024-03-23T15:53:46;9.30;93.90
31819;DHT22;18384;48.860;9.188;2024-03-23T15:56:12;9.40;93.70
31819;DHT22;18384;48.860;9.188;2024-03-23T15:58:38;9.30;93.00
31819;DHT22;18384;48.860;9.188;2024-03-23T16:01:05;9.40;93.10
31819;DHT22;18384;48.860;9.188;2024-03-23T16:03:34;9.50;93.70
31819;DHT22;18384;48.860;9.188;2024-03-23T16:06:02;9.60;92.50
31819;DHT22;18384;48.860;9.188;2024-03-23T16:08:30;9.60;92.20
31819;DHT22;18384;48.860;9.188;2024-03-23T16:11:00;9.60;92.50
31819;DHT22;18384;48.860;9.188;2024-03-23T16:13:27;9.60;92.00
31819;DHT22;18384;48.860;9.188;2024-03-23T16:15:58;9.50;92.80
31819;DHT22;18384;48.860;9.188;2024-03-23T16:18:25;9.40;92.30
31819;DHT22;18384;48.860;9.188;2024-03-23T16:20:56;9.40;92.30
31819;DHT22;18384;48.860;9.188;2024-03-23T16:23:23;9.40;92.10
31819;DHT22;18384;48.860;9.188;2024-03-23T16:25:50;9.30;92.40
31819;DHT22;18384;48.860;9.188;2024-03-23T16:31:09;9.30;92.60
31819;DHT22;18384;48.860;9.188;2024-03-23T16:33:37;9.20;92.20
31819;DHT22;18384;48.860;9.188;2024-03-23T16:36:08;9.30;92.20
31819;DHT22;18384;48.860;9.188;2024-03-23T16:38:36;9.30;92.40